Lavon, Texas
Current Conditions -  °F | °C
As of 11:15 PM on Saturday 25 Oct 2014 (Local Time) from KF46 Reporting Station
Clear Clear  
Wind Chill: 71°   Ceiling: Unl
Heat Index: 71°   Visibility: 10mi
Dew Point: 62°   Wind: 12mph
Humidity: 74%   Direction: 200°SSW
Pressure: 30.05"   Gusts: NA
Location:  33.03°N, 96.43°W
Report Text: KF46 260415Z AUTO 20010KT 10SM CLR 22/17 A3005 RMK AO2 T02160167
Loading
Personal Weather Stations






























Interactive Weather Map
Tropical Storm Tracking
New forecast layout! Learn more

10-Day Weather Forecast

Advertisements
Track Severe Weather on mobile